createdAt,value
2022-10-12T00:01:57.917Z,10.70
2022-10-12T00:06:59.826Z,11.05
2022-10-12T00:12:01.687Z,8.00
2022-10-12T00:17:04.116Z,6.13
2022-10-12T00:22:06.157Z,7.97
2022-10-12T00:27:07.989Z,5.70
2022-10-12T00:32:10.734Z,7.70
2022-10-12T00:37:12.535Z,6.82
2022-10-12T00:42:14.434Z,7.43
2022-10-12T00:47:16.182Z,9.70
2022-10-12T00:52:22.308Z,12.15
2022-10-12T00:57:24.729Z,8.05
2022-10-12T01:02:29.795Z,17.88
2022-10-12T01:07:31.693Z,9.32
2022-10-12T01:12:35.377Z,12.48
2022-10-12T01:17:56.511Z,7.60
2022-10-12T01:23:16.945Z,7.13
2022-10-12T01:28:40.510Z,6.82
2022-10-12T01:33:59.017Z,12.63
2022-10-12T01:39:18.245Z,6.25
2022-10-12T01:44:24.050Z,11.77
2022-10-12T01:49:30.672Z,13.07
2022-10-12T01:54:47.353Z,10.02
2022-10-12T02:00:09.766Z,11.55
2022-10-12T02:05:26.760Z,7.97
2022-10-12T02:10:35.838Z,11.35
2022-10-12T02:15:40.817Z,5.57
2022-10-12T02:20:42.777Z,8.77
2022-10-12T02:25:46.458Z,8.10
2022-10-12T02:31:17.753Z,9.68
2022-10-12T02:36:34.429Z,7.68
2022-10-12T02:41:46.668Z,6.07
2022-10-12T02:46:50.357Z,7.35
2022-10-12T02:51:53.292Z,9.95
2022-10-12T02:56:55.305Z,7.35
2022-10-12T03:01:57.466Z,8.82
2022-10-12T03:06:59.255Z,7.00
2022-10-12T03:12:01.042Z,4.50
2022-10-12T03:17:02.912Z,13.45
2022-10-12T03:22:04.690Z,8.88
2022-10-12T03:27:06.475Z,10.82
2022-10-12T03:32:08.497Z,10.40
2022-10-12T03:37:10.957Z,7.70
2022-10-12T03:42:12.741Z,3.72
2022-10-12T03:47:14.582Z,9.68
2022-10-12T03:52:16.371Z,5.35
2022-10-12T03:57:18.161Z,4.00
2022-10-12T04:02:20.327Z,21.55
2022-10-12T04:07:22.186Z,9.70
2022-10-12T04:12:23.989Z,14.13
2022-10-12T04:17:25.806Z,14.27
2022-10-12T04:22:27.694Z,8.25
2022-10-12T04:27:29.534Z,12.60
2022-10-12T04:32:31.360Z,17.85
2022-10-12T04:37:33.172Z,10.60
2022-10-12T04:42:34.953Z,12.70
2022-10-12T04:47:37.018Z,4.57
2022-10-12T04:52:39.167Z,5.68
2022-10-12T04:57:41.346Z,9.38
2022-10-12T05:02:43.396Z,7.95
2022-10-12T05:07:45.197Z,10.68
2022-10-12T05:12:47.045Z,11.07
2022-10-12T05:17:48.831Z,9.93
2022-10-12T05:22:50.648Z,5.78
2022-10-12T05:27:52.694Z,12.15
2022-10-12T05:32:54.509Z,5.10
2022-10-12T05:37:56.283Z,6.28
2022-10-12T05:42:58.122Z,12.60
2022-10-12T05:47:59.939Z,10.38
2022-10-12T05:53:01.758Z,8.75
2022-10-12T05:58:03.564Z,6.43
2022-10-12T06:03:05.404Z,4.13
2022-10-12T06:08:08.877Z,7.43
2022-10-12T06:13:10.643Z,12.02
2022-10-12T06:18:13.472Z,8.88
2022-10-12T06:23:15.759Z,12.32
2022-10-12T06:28:20.329Z,3.13
2022-10-12T06:33:22.241Z,10.07
2022-10-12T06:38:24.403Z,7.03
2022-10-12T06:43:26.195Z,5.88
2022-10-12T06:48:28.145Z,10.45
2022-10-12T06:53:32.908Z,11.00
2022-10-12T06:58:36.613Z,10.93
2022-10-12T07:03:38.857Z,6.90
2022-10-12T07:08:42.204Z,7.82
2022-10-12T07:13:44.169Z,4.65
2022-10-12T07:18:46.289Z,13.13
2022-10-12T07:23:48.146Z,21.95
2022-10-12T07:28:50.018Z,7.75
2022-10-12T07:33:51.810Z,8.95
2022-10-12T07:38:53.643Z,9.93
2022-10-12T07:43:56.742Z,9.93
2022-10-12T07:48:58.631Z,8.65
2022-10-12T07:54:00.479Z,7.55
2022-10-12T07:59:02.328Z,5.10
2022-10-12T08:04:04.854Z,7.53
2022-10-12T08:09:06.716Z,8.65
2022-10-12T08:14:17.601Z,6.72
2022-10-12T08:19:19.414Z,5.18
2022-10-12T08:24:21.307Z,12.57
2022-10-12T08:29:23.098Z,7.60
2022-10-12T08:34:25.354Z,10.70
2022-10-12T08:39:27.625Z,9.40
2022-10-12T08:45:13.864Z,13.10
2022-10-12T08:50:31.747Z,5.07
2022-10-12T08:55:40.116Z,12.98
2022-10-12T09:00:42.590Z,4.68
2022-10-12T09:05:54.203Z,7.25
2022-10-12T09:11:16.882Z,8.40
2022-10-12T09:16:25.959Z,9.40
2022-10-12T09:21:31.401Z,9.93
2022-10-12T09:26:38.454Z,10.73
2022-10-12T09:31:49.234Z,13.25
2022-10-12T09:36:51.336Z,13.13
2022-10-12T09:41:53.125Z,9.27
2022-10-12T09:46:58.994Z,11.98
2022-10-12T09:52:01.047Z,10.05
2022-10-12T09:57:03.093Z,12.48
2022-10-12T10:02:05.472Z,14.90
2022-10-12T10:07:25.165Z,12.43
2022-10-12T10:12:27.620Z,8.70
2022-10-12T10:17:33.764Z,10.57
2022-10-12T10:22:35.746Z,7.97
2022-10-12T10:27:39.859Z,6.97
2022-10-12T10:32:42.809Z,6.28
2022-10-12T10:37:55.233Z,8.07
2022-10-12T10:43:20.612Z,12.38
2022-10-12T10:48:27.995Z,9.30
2022-10-12T10:53:48.481Z,9.80
2022-10-12T10:58:58.140Z,7.32
2022-10-12T11:04:04.926Z,11.30
2022-10-12T11:09:13.201Z,10.90
2022-10-12T11:14:19.319Z,10.98
2022-10-12T11:19:42.308Z,20.15
2022-10-12T11:25:02.380Z,7.55
2022-10-12T11:30:13.027Z,12.90
2022-10-12T11:35:36.342Z,13.27
2022-10-12T11:41:05.461Z,15.63
2022-10-12T11:46:13.564Z,6.65
2022-10-12T11:51:15.349Z,12.20
2022-10-12T11:56:29.860Z,13.45
2022-10-12T12:01:47.136Z,5.45
2022-10-12T12:06:56.102Z,9.43
2022-10-12T12:12:10.213Z,11.20
2022-10-12T12:17:28.015Z,6.78
2022-10-12T12:22:50.764Z,8.35
2022-10-12T12:28:20.448Z,14.93
2022-10-12T12:33:22.231Z,11.27
2022-10-12T12:38:40.768Z,11.43
2022-10-12T12:43:45.384Z,12.70
2022-10-12T12:48:47.205Z,8.85
2022-10-12T12:53:50.859Z,15.18
2022-10-12T12:59:02.548Z,11.15
2022-10-12T13:04:10.382Z,10.68
2022-10-12T13:09:25.499Z,4.38
2022-10-12T13:15:04.343Z,15.55
2022-10-12T13:20:33.590Z,11.70
2022-10-12T13:25:54.856Z,16.02
2022-10-12T13:30:59.093Z,16.02
2022-10-12T13:36:08.622Z,7.40
2022-10-12T13:41:15.146Z,14.05
2022-10-12T13:46:46.415Z,9.60
2022-10-12T13:57:14.925Z,10.38
2022-10-12T14:02:23.828Z,9.75
2022-10-12T14:07:35.872Z,5.63
2022-10-12T14:12:38.225Z,10.05
2022-10-12T14:17:47.997Z,9.48
2022-10-12T14:22:50.046Z,7.28
2022-10-12T14:27:57.138Z,8.13
2022-10-12T14:33:17.291Z,10.13
2022-10-12T14:38:39.854Z,11.90
2022-10-12T14:43:41.955Z,10.55
2022-10-12T14:48:43.751Z,11.98
2022-10-12T14:53:45.565Z,10.88
2022-10-12T14:58:47.367Z,11.43
2022-10-12T15:03:49.478Z,10.35
2022-10-12T15:08:52.588Z,16.17
2022-10-12T15:13:54.378Z,18.83
2022-10-12T15:18:56.193Z,23.45
2022-10-12T15:23:57.987Z,15.93
2022-10-12T15:28:59.978Z,13.68
2022-10-12T15:34:01.866Z,11.38
2022-10-12T15:39:03.816Z,17.88
2022-10-12T15:44:06.476Z,12.07
2022-10-12T15:49:09.517Z,21.48
2022-10-12T15:54:11.505Z,9.85
2022-10-12T15:59:13.305Z,16.65
2022-10-12T16:04:15.738Z,20.77
2022-10-12T16:09:17.570Z,20.63
2022-10-12T16:14:19.422Z,15.30
2022-10-12T16:19:21.221Z,20.80
2022-10-12T16:24:23.792Z,14.18
2022-10-12T16:29:25.611Z,18.83
2022-10-12T16:34:30.381Z,18.48
2022-10-12T16:39:32.433Z,23.58
2022-10-12T16:44:34.290Z,29.45
2022-10-12T16:49:36.122Z,23.98
2022-10-12T16:54:38.031Z,17.25
2022-10-12T16:59:39.826Z,18.88
2022-10-12T17:04:41.967Z,27.35
2022-10-12T17:09:43.878Z,31.70
2022-10-12T17:14:46.177Z,26.15
2022-10-12T17:19:48.067Z,24.80
2022-10-12T17:24:50.100Z,17.02
2022-10-12T17:29:51.995Z,54.78
2022-10-12T17:34:53.838Z,45.17
2022-10-12T17:39:55.722Z,75.80
2022-10-12T17:44:57.551Z,54.15
2022-10-12T17:49:59.368Z,28.35
2022-10-12T17:55:01.312Z,29.48
2022-10-12T18:00:04.583Z,21.75
2022-10-12T18:05:13.435Z,24.48
2022-10-12T18:10:15.551Z,17.73
2022-10-12T18:15:17.519Z,20.85
2022-10-12T18:20:19.361Z,17.08
2022-10-12T18:25:21.464Z,20.35
2022-10-12T18:30:23.914Z,15.20
2022-10-12T18:35:27.613Z,19.45
2022-10-12T18:40:29.418Z,16.77
2022-10-12T18:45:31.655Z,21.20
2022-10-12T18:50:36.072Z,22.27
2022-10-12T18:55:41.092Z,24.17
2022-10-12T19:00:43.707Z,10.98
2022-10-12T19:05:46.644Z,21.88
2022-10-12T19:10:48.454Z,17.33
2022-10-12T19:15:50.292Z,13.68
2022-10-12T19:20:52.253Z,24.67
2022-10-12T19:25:57.146Z,18.65
2022-10-12T19:30:59.481Z,16.50
2022-10-12T19:36:06.163Z,23.08
2022-10-12T19:41:09.333Z,19.90
2022-10-12T19:46:12.825Z,15.40
2022-10-12T19:51:14.916Z,16.90
2022-10-12T19:56:20.898Z,23.65
2022-10-12T20:01:26.082Z,20.02
2022-10-12T20:06:30.279Z,24.83
2022-10-12T20:11:32.388Z,14.48
2022-10-12T20:16:35.403Z,17.92
2022-10-12T20:21:37.616Z,17.67
2022-10-12T20:26:40.026Z,21.95
2022-10-12T20:31:43.667Z,23.45
2022-10-12T20:36:46.376Z,18.33
2022-10-12T20:41:48.419Z,23.30
2022-10-12T20:46:50.693Z,26.42
2022-10-12T20:51:52.555Z,23.42
2022-10-12T20:56:54.474Z,15.48
2022-10-12T21:01:56.258Z,16.40
2022-10-12T21:06:58.247Z,30.30
2022-10-12T21:12:00.203Z,16.75
2022-10-12T21:17:01.948Z,19.95
2022-10-12T21:22:03.932Z,20.48
2022-10-12T21:27:05.741Z,17.40
2022-10-12T21:32:07.623Z,21.48
2022-10-12T21:37:09.448Z,20.30
2022-10-12T21:42:11.238Z,18.55
2022-10-12T21:47:17.300Z,18.92
2022-10-12T21:52:20.172Z,17.42
2022-10-12T21:57:22.256Z,18.90
2022-10-12T22:02:23.992Z,20.02
2022-10-12T22:07:25.841Z,15.02
2022-10-12T22:12:30.128Z,13.93
2022-10-12T22:17:31.957Z,20.00
2022-10-12T22:22:33.763Z,18.13
2022-10-12T22:27:35.615Z,14.02
2022-10-12T22:32:37.433Z,17.80
2022-10-12T22:37:39.262Z,15.25
2022-10-12T22:42:41.056Z,23.25
2022-10-12T22:47:42.980Z,14.98
2022-10-12T22:52:44.766Z,16.85
2022-10-12T22:57:46.563Z,14.00
2022-10-12T23:02:48.463Z,16.92
2022-10-12T23:07:50.466Z,14.30
2022-10-12T23:12:52.495Z,17.80
2022-10-12T23:17:54.354Z,22.90
2022-10-12T23:22:56.225Z,26.38
2022-10-12T23:27:58.065Z,13.07
2022-10-12T23:32:59.872Z,14.73
2022-10-12T23:38:02.030Z,18.65
2022-10-12T23:43:03.821Z,14.27
2022-10-12T23:48:05.805Z,15.55
2022-10-12T23:53:09.470Z,19.48
2022-10-12T23:58:11.294Z,14.80
